createdAt,value
2023-03-30T09:28:43.279Z,15.49
2023-03-30T09:29:43.217Z,15.56
2023-03-30T09:30:43.187Z,15.68
2023-03-30T09:31:43.237Z,15.74
2023-03-30T09:32:43.201Z,15.64
2023-03-30T09:33:43.152Z,15.68
2023-03-30T09:34:43.091Z,15.82
2023-03-30T09:35:43.117Z,15.61
2023-03-30T09:36:43.051Z,15.56
2023-03-30T09:37:43.032Z,15.52
2023-03-30T09:38:43.010Z,15.54
2023-03-30T09:39:42.998Z,15.51
2023-03-30T09:40:43.023Z,15.48
2023-03-30T09:41:42.945Z,15.56
2023-03-30T09:42:42.919Z,15.57
2023-03-30T09:43:42.917Z,15.48
2023-03-30T09:44:42.896Z,15.52
2023-03-30T09:45:42.899Z,15.56
2023-03-30T09:46:42.886Z,15.51
2023-03-30T09:47:42.867Z,15.59
2023-03-30T09:48:42.803Z,15.51
2023-03-30T09:49:42.792Z,15.72
2023-03-30T09:50:42.774Z,15.75
2023-03-30T09:51:42.750Z,15.72
2023-03-30T09:52:42.732Z,15.66
2023-03-30T09:53:42.709Z,15.56
2023-03-30T09:54:42.976Z,15.52
2023-03-30T09:55:42.990Z,15.52
2023-03-30T09:56:42.848Z,15.52
2023-03-30T09:57:42.637Z,15.49
2023-03-30T09:58:42.610Z,15.60
2023-03-30T09:59:42.602Z,15.39
2023-03-30T10:00:42.571Z,15.42
2023-03-30T10:01:42.656Z,15.51
2023-03-30T10:02:42.572Z,15.36
2023-03-30T10:03:42.647Z,15.38
2023-03-30T10:04:42.540Z,15.54
2023-03-30T10:05:42.476Z,15.61
2023-03-30T10:06:42.459Z,15.68
2023-03-30T10:07:42.466Z,15.86
2023-03-30T10:08:42.425Z,15.88
2023-03-30T10:09:42.408Z,15.97
2023-03-30T10:10:42.384Z,16.07
2023-03-30T10:11:42.372Z,16.20
2023-03-30T10:12:42.353Z,16.27
2023-03-30T10:13:42.336Z,16.34
2023-03-30T10:14:42.308Z,16.41
2023-03-30T10:15:42.327Z,16.40
2023-03-30T10:16:42.312Z,16.35
2023-03-30T10:17:43.327Z,16.37
2023-03-30T10:18:42.234Z,16.27
2023-03-30T10:19:45.951Z,16.20
2023-03-30T10:20:42.194Z,16.25
2023-03-30T10:21:42.183Z,16.12
2023-03-30T10:22:42.160Z,16.12
2023-03-30T10:23:42.143Z,16.03
2023-03-30T10:24:43.700Z,16.03
2023-03-30T10:25:42.107Z,16.15
2023-03-30T10:26:42.083Z,16.14
2023-03-30T10:27:42.073Z,16.11
2023-03-30T10:28:42.049Z,16.31
2023-03-30T10:29:42.035Z,16.26
2023-03-30T10:30:42.009Z,16.27
2023-03-30T10:31:42.021Z,16.30
2023-03-30T10:32:42.037Z,16.38
2023-03-30T10:33:41.970Z,16.38
2023-03-30T10:34:41.942Z,16.45
2023-03-30T10:35:41.973Z,16.50
2023-03-30T10:36:41.903Z,16.68
2023-03-30T10:37:41.897Z,16.73
2023-03-30T10:38:41.884Z,16.60
2023-03-30T10:39:41.849Z,16.53
2023-03-30T10:40:41.829Z,16.44
2023-03-30T10:41:41.835Z,16.45
2023-03-30T10:42:41.788Z,16.42
2023-03-30T10:43:41.777Z,16.42
2023-03-30T10:44:41.756Z,16.44
2023-03-30T10:45:41.767Z,16.40
2023-03-30T10:46:41.756Z,16.40
2023-03-30T10:47:41.755Z,16.37
2023-03-30T10:48:41.688Z,16.40
2023-03-30T10:49:41.710Z,16.49
2023-03-30T10:50:41.654Z,16.41
2023-03-30T10:51:41.638Z,16.30
2023-03-30T10:52:48.735Z,16.30
2023-03-30T10:53:41.604Z,16.25
2023-03-30T10:54:41.596Z,16.25
2023-03-30T10:55:41.568Z,16.26
2023-03-30T10:56:41.567Z,16.31
2023-03-30T10:57:41.541Z,16.34
2023-03-30T10:58:41.513Z,16.30
2023-03-30T10:59:41.498Z,16.42
2023-03-30T11:00:41.496Z,16.31
2023-03-30T11:01:41.452Z,16.48
2023-03-30T11:02:41.503Z,16.48
2023-03-30T11:03:41.525Z,16.55
2023-03-30T11:04:41.456Z,16.56
2023-03-30T11:05:41.382Z,16.49
2023-03-30T11:06:41.360Z,16.53
2023-03-30T11:07:41.348Z,16.52
2023-03-30T11:08:41.318Z,16.38
2023-03-30T11:09:41.318Z,16.52
2023-03-30T11:10:43.943Z,16.50
2023-03-30T11:11:41.312Z,16.50
2023-03-30T11:12:41.248Z,16.58
2023-03-30T11:13:41.256Z,16.63
2023-03-30T11:14:41.217Z,16.71
2023-03-30T11:15:41.224Z,16.74
2023-03-30T11:16:41.282Z,16.85
2023-03-30T11:17:41.201Z,17.08
2023-03-30T11:18:41.244Z,17.53
2023-03-30T11:19:41.138Z,17.85
2023-03-30T11:20:41.149Z,17.84
2023-03-30T11:21:41.112Z,17.89
2023-03-30T11:22:41.088Z,17.74
2023-03-30T11:23:41.072Z,17.74
2023-03-30T11:24:41.045Z,17.63
2023-03-30T11:25:41.062Z,17.66
2023-03-30T11:26:41.017Z,17.66
2023-03-30T11:27:41.013Z,17.54
2023-03-30T11:28:40.981Z,17.74
2023-03-30T11:29:40.969Z,17.92
2023-03-30T11:30:40.975Z,18.13
2023-03-30T11:31:40.971Z,18.03
2023-03-30T11:32:40.982Z,18.07
2023-03-30T11:33:40.903Z,18.04
2023-03-30T11:34:40.891Z,17.85
2023-03-30T11:35:40.881Z,17.89
2023-03-30T11:36:40.871Z,17.85
2023-03-30T11:37:40.850Z,17.82
2023-03-30T11:38:40.838Z,17.88
2023-03-30T11:39:40.812Z,17.69
2023-03-30T11:40:40.791Z,17.59
2023-03-30T11:41:40.780Z,17.67
2023-03-30T11:42:40.768Z,17.55
2023-03-30T11:43:40.755Z,17.57
2023-03-30T11:44:40.743Z,17.55
2023-03-30T11:45:40.730Z,17.67
2023-03-30T11:46:40.724Z,17.74
2023-03-30T11:47:40.815Z,18.18
2023-03-30T11:48:40.673Z,18.49
2023-03-30T11:49:40.664Z,18.95
2023-03-30T11:50:40.649Z,19.08
2023-03-30T11:51:40.637Z,19.21
2023-03-30T11:52:40.733Z,19.43
2023-03-30T11:53:40.609Z,19.58
2023-03-30T11:55:40.587Z,19.24
2023-03-30T11:56:40.645Z,19.15
2023-03-30T11:57:40.557Z,18.98
2023-03-30T11:58:40.546Z,18.97
2023-03-30T11:59:40.539Z,18.70
2023-03-30T12:00:40.527Z,18.76
2023-03-30T12:01:40.515Z,18.28
2023-03-30T12:02:40.528Z,17.91
2023-03-30T12:03:40.729Z,17.78
2023-03-30T12:04:42.282Z,17.84
2023-03-30T12:05:40.466Z,18.03
2023-03-30T12:06:40.455Z,17.95
2023-03-30T12:07:40.453Z,17.81
2023-03-30T12:08:40.447Z,17.55
2023-03-30T12:09:40.437Z,17.54
2023-03-30T12:10:40.400Z,17.48
2023-03-30T12:11:40.389Z,17.59
2023-03-30T12:12:40.384Z,17.54
2023-03-30T12:13:50.820Z,17.44
2023-03-30T12:14:40.353Z,17.35
2023-03-30T12:15:40.334Z,17.48
2023-03-30T12:16:40.401Z,17.87
2023-03-30T12:17:40.337Z,18.29
2023-03-30T12:18:40.278Z,18.64
2023-03-30T12:19:49.225Z,18.94
2023-03-30T12:20:40.255Z,18.90
2023-03-30T12:21:40.248Z,18.92
2023-03-30T12:22:40.224Z,18.86
2023-03-30T12:23:40.221Z,18.90
2023-03-30T12:24:40.208Z,18.76
2023-03-30T12:25:40.200Z,18.27
2023-03-30T12:26:40.172Z,18.25
2023-03-30T12:27:40.166Z,17.97
2023-03-30T12:28:58.012Z,18.04
2023-03-30T12:30:01.067Z,18.43
2023-03-30T12:30:40.135Z,18.43
2023-03-30T12:31:40.165Z,18.29
2023-03-30T12:32:40.104Z,18.06
2023-03-30T12:33:40.091Z,17.91
2023-03-30T12:34:40.076Z,17.67
2023-03-30T12:35:40.125Z,17.46
2023-03-30T12:36:40.045Z,17.33
2023-03-30T12:37:40.046Z,17.22
2023-03-30T12:38:40.018Z,17.15
2023-03-30T12:39:40.048Z,17.40
2023-03-30T12:40:39.998Z,17.81
2023-03-30T12:41:39.980Z,18.25
2023-03-30T12:42:39.982Z,18.58
2023-03-30T12:43:39.948Z,18.86
2023-03-30T12:44:39.926Z,19.18
2023-03-30T12:45:40.005Z,19.21
2023-03-30T12:46:40.048Z,19.38
2023-03-30T12:47:40.011Z,19.39
2023-03-30T12:48:39.880Z,19.38
2023-03-30T12:49:39.868Z,19.42
2023-03-30T12:50:39.848Z,19.33
2023-03-30T12:51:39.844Z,19.23
2023-03-30T12:52:39.840Z,19.36
2023-03-30T12:53:39.815Z,19.21
2023-03-30T12:54:39.819Z,19.06
2023-03-30T12:55:39.800Z,18.86
2023-03-30T12:56:39.847Z,18.80
2023-03-30T12:57:39.783Z,18.70
2023-03-30T12:58:39.754Z,18.55
2023-03-30T12:59:39.750Z,18.82
2023-03-30T13:00:39.728Z,19.38
2023-03-30T13:01:39.845Z,19.65
2023-03-30T13:02:39.724Z,19.46
2023-03-30T13:03:39.714Z,19.40
2023-03-30T13:04:39.723Z,19.15
2023-03-30T13:05:39.681Z,19.46
2023-03-30T13:06:39.655Z,19.72
2023-03-30T13:07:39.646Z,19.76
2023-03-30T13:08:39.648Z,19.87
2023-03-30T13:09:39.633Z,19.87
2023-03-30T13:10:39.628Z,19.76
2023-03-30T13:11:39.613Z,19.72
2023-03-30T13:12:39.598Z,19.72
2023-03-30T13:13:39.576Z,19.70
2023-03-30T13:14:39.575Z,19.58
2023-03-30T13:15:39.573Z,19.65
2023-03-30T13:16:39.599Z,19.47
2023-03-30T13:17:39.580Z,19.73
2023-03-30T13:18:39.525Z,19.72
2023-03-30T13:19:39.519Z,19.60
2023-03-30T13:20:39.497Z,19.63
2023-03-30T13:21:39.496Z,19.57
2023-03-30T13:22:39.489Z,19.66
2023-03-30T13:23:39.480Z,19.75
2023-03-30T13:24:39.472Z,19.88
2023-03-30T13:25:39.463Z,19.84
2023-03-30T13:26:39.447Z,20.03
2023-03-30T13:27:39.439Z,20.03
2023-03-30T13:28:39.425Z,20.15
2023-03-30T13:29:39.439Z,20.31
2023-03-30T13:30:39.415Z,20.12
2023-03-30T13:31:39.387Z,19.93
2023-03-30T13:32:39.424Z,20.24
2023-03-30T13:33:39.376Z,20.00
2023-03-30T13:34:39.354Z,20.00
2023-03-30T13:35:39.358Z,20.05
2023-03-30T13:36:39.339Z,20.03
2023-03-30T13:37:39.326Z,20.15
2023-03-30T13:38:39.324Z,20.31
2023-03-30T13:39:41.784Z,20.51
2023-03-30T13:40:46.116Z,20.69
2023-03-30T13:41:39.343Z,20.43
2023-03-30T13:42:39.279Z,20.00
2023-03-30T13:43:39.269Z,19.78
2023-03-30T13:44:39.272Z,19.46
2023-03-30T13:45:39.259Z,19.23
2023-03-30T13:46:39.286Z,19.11
2023-03-30T13:47:39.313Z,18.84
2023-03-30T13:48:39.283Z,18.97
2023-03-30T13:49:39.222Z,19.39
2023-03-30T13:50:39.204Z,19.15
2023-03-30T13:51:39.194Z,19.29
2023-03-30T13:52:39.173Z,19.15
2023-03-30T13:53:39.165Z,19.25
2023-03-30T13:54:39.192Z,19.15
2023-03-30T13:55:39.129Z,19.28
2023-03-30T13:56:39.119Z,19.66
2023-03-30T13:57:39.106Z,19.91
2023-03-30T13:58:39.137Z,19.91
2023-03-30T13:59:39.135Z,19.58
2023-03-30T14:00:39.082Z,19.36
2023-03-30T14:01:39.601Z,19.60
2023-03-30T14:02:39.063Z,19.66
2023-03-30T14:03:39.079Z,19.66
2023-03-30T14:04:39.048Z,20.12
2023-03-30T14:05:39.013Z,20.49
2023-03-30T14:06:38.993Z,20.28
2023-03-30T14:07:38.975Z,20.41
2023-03-30T14:08:38.990Z,20.13
2023-03-30T14:09:38.982Z,19.60
2023-03-30T14:10:38.949Z,19.28
2023-03-30T14:11:38.930Z,19.05
2023-03-30T14:12:39.549Z,18.90
2023-03-30T14:13:38.938Z,18.70
2023-03-30T14:14:38.909Z,18.67
2023-03-30T14:15:38.918Z,18.76
2023-03-30T14:16:39.067Z,19.13
2023-03-30T14:17:38.874Z,19.29
2023-03-30T14:18:38.847Z,19.25
2023-03-30T14:19:38.827Z,19.54
2023-03-30T14:20:38.839Z,19.91
2023-03-30T14:21:38.815Z,20.23
2023-03-30T14:22:38.797Z,20.18
2023-03-30T14:23:38.782Z,19.90
2023-03-30T14:24:38.772Z,19.75
2023-03-30T14:25:38.752Z,19.75
2023-03-30T14:26:38.742Z,19.63
2023-03-30T14:27:38.728Z,19.50
2023-03-30T14:28:38.723Z,19.48
2023-03-30T14:29:38.728Z,19.42
2023-03-30T14:30:38.691Z,19.42
2023-03-30T14:31:38.766Z,19.29
2023-03-30T14:32:38.768Z,19.57
2023-03-30T14:33:38.649Z,19.98
2023-03-30T14:34:38.656Z,19.93
2023-03-30T14:35:38.642Z,20.06
2023-03-30T14:36:38.619Z,19.90
2023-03-30T14:37:38.590Z,19.61
2023-03-30T14:38:38.584Z,19.55
2023-03-30T14:39:38.592Z,19.36
2023-03-30T14:40:38.567Z,19.08
2023-03-30T14:41:38.535Z,18.99
2023-03-30T14:42:38.532Z,18.94
2023-03-30T14:43:39.505Z,18.73
2023-03-30T14:44:38.512Z,18.67
2023-03-30T14:45:38.516Z,18.58
2023-03-30T14:46:38.516Z,18.49
2023-03-30T14:47:38.460Z,18.43
2023-03-30T14:48:38.454Z,18.34
2023-03-30T14:49:38.423Z,18.19
2023-03-30T14:50:38.452Z,18.12
2023-03-30T14:51:38.420Z,18.06
2023-03-30T14:52:38.392Z,17.97
2023-03-30T14:53:38.390Z,17.99
2023-03-30T14:54:38.345Z,17.82
2023-03-30T14:55:38.333Z,17.69
2023-03-30T14:56:39.876Z,17.43
2023-03-30T14:57:38.485Z,16.86
2023-03-30T14:58:38.281Z,16.31
2023-03-30T14:59:39.762Z,16.23
2023-03-30T15:00:38.247Z,16.16
2023-03-30T15:01:38.242Z,16.20
2023-03-30T15:02:38.232Z,16.33
2023-03-30T15:03:38.247Z,16.48
2023-03-30T15:04:38.473Z,16.73
2023-03-30T15:05:38.173Z,17.36
2023-03-30T15:06:38.141Z,17.85
2023-03-30T15:07:38.121Z,18.13
2023-03-30T15:08:38.101Z,18.39
2023-03-30T15:09:38.079Z,18.79
2023-03-30T15:10:38.073Z,18.67
2023-03-30T15:11:38.041Z,18.49
2023-03-30T15:12:38.038Z,18.67
2023-03-30T15:13:38.031Z,18.95
2023-03-30T15:14:37.999Z,19.11
2023-03-30T15:15:37.981Z,19.23
2023-03-30T15:16:38.052Z,19.51
2023-03-30T15:17:37.999Z,19.31
2023-03-30T15:18:37.942Z,18.92
2023-03-30T15:19:37.916Z,18.67
2023-03-30T15:20:37.913Z,18.39
2023-03-30T15:21:37.888Z,18.13
2023-03-30T15:22:37.876Z,17.79
2023-03-30T15:23:37.910Z,17.71
2023-03-30T15:24:37.873Z,17.67
2023-03-30T15:25:37.822Z,17.54
2023-03-30T15:26:37.822Z,17.50
2023-03-30T15:27:37.803Z,17.44
2023-03-30T15:28:37.787Z,17.15
2023-03-30T15:29:37.778Z,17.08
2023-03-30T15:30:37.800Z,17.00
2023-03-30T15:31:37.918Z,17.00
2023-03-30T15:32:37.733Z,17.00
2023-03-30T15:33:37.734Z,17.00
2023-03-30T15:34:37.692Z,17.10
2023-03-30T15:35:37.736Z,17.29
2023-03-30T15:36:37.646Z,17.59
2023-03-30T15:38:37.614Z,18.06
2023-03-30T15:39:37.596Z,18.22
2023-03-30T15:40:37.576Z,18.19
2023-03-30T15:41:37.556Z,18.22
2023-03-30T15:42:37.552Z,18.03
2023-03-30T15:43:37.520Z,18.02
2023-03-30T15:44:37.525Z,18.07
2023-03-30T15:45:37.490Z,18.13
2023-03-30T15:46:37.532Z,17.85
2023-03-30T15:47:37.562Z,17.78
2023-03-30T15:48:37.446Z,17.71
2023-03-30T15:49:37.455Z,17.54
2023-03-30T15:50:37.419Z,17.50
2023-03-30T15:51:37.398Z,17.47
2023-03-30T15:52:37.379Z,17.28
2023-03-30T15:53:37.351Z,17.17
2023-03-30T15:54:37.335Z,17.15
2023-03-30T15:55:37.313Z,17.13
2023-03-30T15:56:37.321Z,17.15
2023-03-30T15:57:37.284Z,17.08
2023-03-30T15:58:37.270Z,17.10
2023-03-30T15:59:37.250Z,17.13
2023-03-30T16:00:37.229Z,17.13
2023-03-30T16:01:37.238Z,17.15
2023-03-30T16:02:37.317Z,17.11
2023-03-30T16:03:37.175Z,17.30
2023-03-30T16:04:37.230Z,17.46
2023-03-30T16:05:37.230Z,17.51
2023-03-30T16:06:37.126Z,17.55
2023-03-30T16:07:37.102Z,17.40
2023-03-30T16:08:37.103Z,17.33
2023-03-30T16:09:37.070Z,17.18
2023-03-30T16:10:37.053Z,17.11
2023-03-30T16:11:37.031Z,17.04
2023-03-30T16:12:37.036Z,16.96
2023-03-30T16:13:36.994Z,16.89
2023-03-30T16:14:36.990Z,16.86
2023-03-30T16:15:36.962Z,16.83
2023-03-30T16:16:37.049Z,16.86
2023-03-30T16:17:36.963Z,16.71
2023-03-30T16:18:36.913Z,16.73
2023-03-30T16:19:36.883Z,16.75
2023-03-30T16:20:36.871Z,16.60
2023-03-30T16:21:36.852Z,16.59
2023-03-30T16:22:36.836Z,16.59
2023-03-30T16:23:36.810Z,16.55
2023-03-30T16:24:36.796Z,16.60
2023-03-30T16:25:44.742Z,16.68
2023-03-30T16:26:36.774Z,16.74
2023-03-30T16:27:36.730Z,16.63
2023-03-30T16:28:36.751Z,16.70
2023-03-30T16:29:36.689Z,16.58
2023-03-30T16:30:36.675Z,16.41
2023-03-30T16:31:36.713Z,16.30
2023-03-30T16:32:36.677Z,16.14
2023-03-30T16:33:36.615Z,15.88
2023-03-30T16:34:36.599Z,15.48
2023-03-30T16:35:36.588Z,15.08
2023-03-30T16:36:36.559Z,14.84
2023-03-30T16:37:36.528Z,14.56
2023-03-30T16:38:36.513Z,14.20
2023-03-30T16:39:36.496Z,14.06
2023-03-30T16:40:36.483Z,13.94
2023-03-30T16:41:36.450Z,13.84
2023-03-30T16:42:36.442Z,13.65
2023-03-30T16:43:36.416Z,13.65
2023-03-30T16:44:36.387Z,13.56
2023-03-30T16:45:36.387Z,13.67
2023-03-30T16:46:36.356Z,13.71
2023-03-30T16:47:36.352Z,13.79
2023-03-30T16:48:36.386Z,13.89
2023-03-30T16:49:36.285Z,13.92
2023-03-30T16:50:36.266Z,13.95
2023-03-30T16:51:36.235Z,14.06
2023-03-30T16:52:36.225Z,14.12
2023-03-30T16:53:36.190Z,14.17
2023-03-30T16:54:36.174Z,14.24
2023-03-30T16:55:36.184Z,14.25
2023-03-30T16:56:36.132Z,14.25
2023-03-30T16:57:36.150Z,14.29
2023-03-30T16:58:36.104Z,14.38
2023-03-30T16:59:36.069Z,14.31
2023-03-30T17:00:36.048Z,14.24
2023-03-30T17:01:36.044Z,14.25
2023-03-30T17:02:36.043Z,14.19
2023-03-30T17:03:36.002Z,14.17
2023-03-30T17:04:35.964Z,14.04
2023-03-30T17:05:35.968Z,14.04
2023-03-30T17:06:35.922Z,14.06
2023-03-30T17:07:35.900Z,14.09
2023-03-30T17:08:35.873Z,14.24
2023-03-30T17:09:35.850Z,14.46
2023-03-30T17:10:35.844Z,14.57
2023-03-30T17:11:35.805Z,14.69
2023-03-30T17:12:35.796Z,14.74
2023-03-30T17:13:35.767Z,14.83
2023-03-30T17:14:35.747Z,14.60
2023-03-30T17:15:35.733Z,14.62
2023-03-30T17:16:35.722Z,14.71
2023-03-30T17:17:35.713Z,14.83
2023-03-30T17:18:35.665Z,15.11
2023-03-30T17:19:35.667Z,15.23
2023-03-30T17:20:35.637Z,15.38
2023-03-30T17:21:35.600Z,15.41
2023-03-30T17:22:35.581Z,15.39
2023-03-30T17:23:35.699Z,15.38
2023-03-30T17:24:35.540Z,15.49
2023-03-30T17:25:35.515Z,15.27
2023-03-30T17:26:35.505Z,15.21
2023-03-30T17:27:35.470Z,15.24
2023-03-30T17:28:35.478Z,15.17
2023-03-30T17:29:35.442Z,15.05
2023-03-30T17:30:35.444Z,14.87
2023-03-30T17:31:35.448Z,14.88
2023-03-30T17:32:35.398Z,14.91
2023-03-30T17:33:35.341Z,14.94
2023-03-30T17:34:35.325Z,14.86
2023-03-30T17:35:35.310Z,14.80
2023-03-30T17:36:35.295Z,14.68
2023-03-30T17:37:35.252Z,14.65
2023-03-30T17:38:35.253Z,14.65
2023-03-30T17:39:35.216Z,14.65
2023-03-30T17:40:35.192Z,14.64
2023-03-30T17:41:35.178Z,14.67
2023-03-30T17:42:35.212Z,14.68
2023-03-30T17:43:35.134Z,14.71
2023-03-30T17:44:35.118Z,14.81
2023-03-30T17:45:35.156Z,14.84
2023-03-30T17:46:35.143Z,14.84
2023-03-30T17:47:35.148Z,14.71
2023-03-30T17:48:35.015Z,14.57
2023-03-30T17:49:35.003Z,14.52
2023-03-30T17:50:35.009Z,14.35
2023-03-30T17:51:34.952Z,14.43
2023-03-30T17:52:34.927Z,14.42
2023-03-30T17:53:34.918Z,14.37
2023-03-30T17:54:34.880Z,14.54
2023-03-30T17:55:34.863Z,14.61
2023-03-30T17:56:34.835Z,14.61
2023-03-30T17:57:34.831Z,14.56
2023-03-30T17:58:34.821Z,14.64
2023-03-30T17:59:34.774Z,14.67
2023-03-30T18:00:34.757Z,14.60
2023-03-30T18:01:36.198Z,14.46
2023-03-30T18:02:34.723Z,14.38
2023-03-30T18:03:34.711Z,14.20
2023-03-30T18:04:34.663Z,14.17
2023-03-30T18:05:34.659Z,14.28
2023-03-30T18:06:34.652Z,14.29
2023-03-30T18:07:34.620Z,14.24
2023-03-30T18:08:34.589Z,14.16
2023-03-30T18:09:34.556Z,14.14
2023-03-30T18:10:34.533Z,14.13
2023-03-30T18:11:34.509Z,14.19
2023-03-30T18:12:34.479Z,14.04
2023-03-30T18:13:34.470Z,14.02
2023-03-30T18:14:34.435Z,14.10
2023-03-30T18:15:34.418Z,14.01
2023-03-30T18:16:34.493Z,14.13
2023-03-30T18:17:34.459Z,14.04
2023-03-30T18:18:34.349Z,14.13
2023-03-30T18:19:34.341Z,13.99
2023-03-30T18:20:34.311Z,13.88
2023-03-30T18:21:34.302Z,13.96
2023-03-30T18:22:34.266Z,13.91
2023-03-30T18:23:34.699Z,13.79
2023-03-30T18:24:34.227Z,13.77
2023-03-30T18:25:34.233Z,13.80
2023-03-30T18:26:34.191Z,13.79
2023-03-30T18:27:34.149Z,13.69
2023-03-30T18:28:34.124Z,13.80
2023-03-30T18:29:34.102Z,13.79
2023-03-30T18:30:34.085Z,13.74
2023-03-30T18:31:34.139Z,13.80
2023-03-30T18:32:44.532Z,13.67
2023-03-30T18:33:34.078Z,13.71
2023-03-30T18:34:34.056Z,13.61
2023-03-30T18:35:33.992Z,13.69
2023-03-30T18:36:33.939Z,13.63
2023-03-30T18:37:33.920Z,13.69
2023-03-30T18:38:33.899Z,13.56
2023-03-30T18:39:33.873Z,13.63
2023-03-30T18:40:33.850Z,13.54
2023-03-30T18:41:33.834Z,13.62
2023-03-30T18:42:33.797Z,13.63
2023-03-30T18:43:33.784Z,13.65
2023-03-30T18:44:33.791Z,13.65
2023-03-30T18:45:33.833Z,13.65
2023-03-30T18:46:33.810Z,13.76
2023-03-30T18:47:33.727Z,13.92
2023-03-30T18:48:33.711Z,13.96
2023-03-30T18:49:33.667Z,14.04
2023-03-30T18:50:33.631Z,14.04
2023-03-30T18:51:33.665Z,14.04
2023-03-30T18:52:33.582Z,14.01
2023-03-30T18:53:33.554Z,14.06
2023-03-30T18:54:33.532Z,14.07
2023-03-30T18:55:33.510Z,13.94
2023-03-30T18:56:33.492Z,14.04
2023-03-30T18:57:33.465Z,14.07
2023-03-30T18:58:33.475Z,14.01
2023-03-30T18:59:33.419Z,14.09
2023-03-30T19:00:33.406Z,14.10
2023-03-30T19:01:33.428Z,14.04
2023-03-30T19:02:33.491Z,14.19
2023-03-30T19:03:33.340Z,14.19
2023-03-30T19:04:33.301Z,14.17
2023-03-30T19:05:33.290Z,14.19
2023-03-30T19:06:33.259Z,14.10
2023-03-30T19:07:33.277Z,14.10
2023-03-30T19:08:33.227Z,14.07
2023-03-30T19:09:42.579Z,14.02
2023-03-30T19:10:33.176Z,14.06
2023-03-30T19:11:33.152Z,14.07
2023-03-30T19:12:33.143Z,14.14
2023-03-30T19:13:33.103Z,14.16
2023-03-30T19:14:33.093Z,14.24
2023-03-30T19:15:33.066Z,14.28
2023-03-30T19:16:33.091Z,14.31
2023-03-30T19:17:33.066Z,14.27
2023-03-30T19:18:33.014Z,14.37
2023-03-30T19:19:32.976Z,14.27
2023-03-30T19:20:32.953Z,14.25
2023-03-30T19:21:32.947Z,14.21
2023-03-30T19:22:32.902Z,14.24
2023-03-30T19:23:32.909Z,14.25
2023-03-30T19:24:32.857Z,14.25
2023-03-30T19:25:32.840Z,14.24
2023-03-30T19:26:32.831Z,14.25
2023-03-30T19:27:32.797Z,14.14
2023-03-30T19:28:32.793Z,14.16
2023-03-30T19:29:32.759Z,14.14
2023-03-30T19:30:33.376Z,14.16
2023-03-30T19:31:32.749Z,14.12
2023-03-30T19:32:32.698Z,14.07
2023-03-30T19:33:32.664Z,14.07
2023-03-30T19:34:32.662Z,14.12
2023-03-30T19:35:32.667Z,14.12
2023-03-30T19:36:32.802Z,14.14
2023-03-30T19:37:32.820Z,14.09
2023-03-30T19:38:32.561Z,14.04
2023-03-30T19:39:32.535Z,13.99
2023-03-30T19:40:32.511Z,13.94
2023-03-30T19:41:32.518Z,13.94
2023-03-30T19:42:32.478Z,13.95
2023-03-30T19:43:32.454Z,13.88
2023-03-30T19:44:32.415Z,13.95
2023-03-30T19:45:32.398Z,13.96
2023-03-30T19:46:32.472Z,13.83
2023-03-30T19:47:32.364Z,13.84
2023-03-30T19:48:32.326Z,13.99
2023-03-30T19:49:32.323Z,13.95
2023-03-30T19:50:32.297Z,13.94
2023-03-30T19:51:32.289Z,13.98
2023-03-30T19:52:32.258Z,13.88
2023-03-30T19:53:32.225Z,13.96
2023-03-30T19:54:32.196Z,13.92
2023-03-30T19:55:32.220Z,13.89
2023-03-30T19:56:32.149Z,13.87
2023-03-30T19:57:32.134Z,14.01
2023-03-30T19:58:32.103Z,13.96
2023-03-30T19:59:32.090Z,13.96
2023-03-30T20:00:32.065Z,14.06
2023-03-30T20:01:32.064Z,13.83
2023-03-30T20:02:32.103Z,13.95
2023-03-30T20:03:32.080Z,13.87
2023-03-30T20:04:31.982Z,13.92
2023-03-30T20:05:31.955Z,13.95
2023-03-30T20:06:31.929Z,13.95
2023-03-30T20:07:31.912Z,13.98
2023-03-30T20:08:31.915Z,13.96
2023-03-30T20:09:31.884Z,13.92
2023-03-30T20:10:31.840Z,13.95
2023-03-30T20:11:31.834Z,13.91
2023-03-30T20:12:31.825Z,13.95
2023-03-30T20:13:31.783Z,14.02
2023-03-30T20:14:31.759Z,14.09
2023-03-30T20:15:31.737Z,14.04
2023-03-30T20:16:31.784Z,14.07
2023-03-30T20:17:31.777Z,13.99
2023-03-30T20:18:31.663Z,14.02
2023-03-30T20:19:31.643Z,13.98
2023-03-30T20:20:31.626Z,13.96
2023-03-30T20:21:31.616Z,13.87
2023-03-30T20:22:31.574Z,13.94
2023-03-30T20:23:31.565Z,13.94
2023-03-30T20:24:31.543Z,13.84
2023-03-30T20:25:31.511Z,14.01
2023-03-30T20:26:31.496Z,14.04
2023-03-30T20:27:31.476Z,14.04
2023-03-30T20:28:31.444Z,13.99
2023-03-30T20:29:31.427Z,13.91
2023-03-30T20:30:31.404Z,13.81
2023-03-30T20:31:31.453Z,13.74
2023-03-30T20:32:31.386Z,13.67
2023-03-30T20:33:31.352Z,13.67
2023-03-30T20:34:31.306Z,13.59
2023-03-30T20:35:31.311Z,13.46
2023-03-30T20:36:31.267Z,13.47
2023-03-30T20:37:31.250Z,13.38
2023-03-30T20:38:31.221Z,13.32
2023-03-30T20:39:31.203Z,13.27
2023-03-30T20:40:31.206Z,13.27
2023-03-30T20:41:31.156Z,13.27
2023-03-30T20:42:31.129Z,13.17
2023-03-30T20:43:31.115Z,13.12
2023-03-30T20:44:31.084Z,13.20
2023-03-30T20:45:31.192Z,13.18
2023-03-30T20:46:31.044Z,13.04
2023-03-30T20:47:31.449Z,13.03
2023-03-30T20:48:30.994Z,13.02
2023-03-30T20:49:31.008Z,13.06
2023-03-30T20:50:30.965Z,13.00
2023-03-30T20:51:30.934Z,12.95
2023-03-30T20:52:30.936Z,12.87
2023-03-30T20:53:30.899Z,12.87
2023-03-30T20:54:30.869Z,12.85
2023-03-30T20:55:30.858Z,12.99
2023-03-30T20:56:30.825Z,12.96
2023-03-30T20:57:30.971Z,13.09
2023-03-30T20:58:30.791Z,13.14
2023-03-30T20:59:30.762Z,13.17
2023-03-30T21:00:30.755Z,13.25
2023-03-30T21:01:30.744Z,13.30
2023-03-30T21:02:31.646Z,13.25
2023-03-30T21:03:30.671Z,13.27
2023-03-30T21:04:30.683Z,13.33
2023-03-30T21:05:30.623Z,13.37
2023-03-30T21:06:30.597Z,13.27
2023-03-30T21:07:30.588Z,13.27
2023-03-30T21:08:30.569Z,13.22
2023-03-30T21:09:30.561Z,13.14
2023-03-30T21:10:30.506Z,13.20
2023-03-30T21:11:30.498Z,13.15
2023-03-30T21:12:30.476Z,13.14
2023-03-30T21:13:30.457Z,13.17
2023-03-30T21:14:30.428Z,13.17
2023-03-30T21:15:30.410Z,13.18
2023-03-30T21:16:30.387Z,13.07
2023-03-30T21:17:30.396Z,13.12
2023-03-30T21:18:30.338Z,13.07
2023-03-30T21:19:30.314Z,13.07
2023-03-30T21:20:30.282Z,13.04
2023-03-30T21:21:30.270Z,13.04
2023-03-30T21:22:30.271Z,13.00
2023-03-30T21:23:30.228Z,13.06
2023-03-30T21:24:30.193Z,13.09
2023-03-30T21:25:30.177Z,13.07
2023-03-30T21:26:30.141Z,13.09
2023-03-30T21:27:30.129Z,13.04
2023-03-30T21:28:30.112Z,13.11
2023-03-30T21:29:30.086Z,13.18
2023-03-30T21:30:30.062Z,13.11
2023-03-30T21:31:30.092Z,13.12
2023-03-30T21:32:31.568Z,13.09
2023-03-30T21:33:30.013Z,13.11
2023-03-30T21:34:29.970Z,13.14
2023-03-30T21:35:29.946Z,13.07
2023-03-30T21:36:30.173Z,13.14
2023-03-30T21:37:29.904Z,13.20
2023-03-30T21:38:29.922Z,13.17
2023-03-30T21:39:29.868Z,13.21
2023-03-30T21:40:29.836Z,13.20
2023-03-30T21:41:29.821Z,13.11
2023-03-30T21:42:29.781Z,13.06
2023-03-30T21:43:29.781Z,13.04
2023-03-30T21:44:29.764Z,13.03
2023-03-30T21:45:29.720Z,12.99
2023-03-30T21:46:29.837Z,12.93
2023-03-30T21:47:29.707Z,13.02
2023-03-30T21:48:29.665Z,12.99
2023-03-30T21:49:29.642Z,13.04
2023-03-30T21:50:29.604Z,13.07
2023-03-30T21:51:29.590Z,13.20
2023-03-30T21:52:29.554Z,13.15
2023-03-30T21:53:29.546Z,13.09
2023-03-30T21:54:29.519Z,13.18
2023-03-30T21:55:29.493Z,13.14
2023-03-30T21:56:29.766Z,13.22
2023-03-30T21:57:29.477Z,13.15
2023-03-30T21:58:29.423Z,13.21
2023-03-30T21:59:29.401Z,13.30
2023-03-30T22:00:29.387Z,13.30
2023-03-30T22:01:29.406Z,13.36
2023-03-30T22:02:29.416Z,13.38
2023-03-30T22:03:29.511Z,13.41
2023-03-30T22:04:29.294Z,13.33
2023-03-30T22:05:29.269Z,13.33
2023-03-30T22:06:29.265Z,13.32
2023-03-30T22:07:29.218Z,13.25
2023-03-30T22:08:29.210Z,13.24
2023-03-30T22:09:29.174Z,13.12
2023-03-30T22:10:29.159Z,13.20
2023-03-30T22:11:29.147Z,13.15
2023-03-30T22:12:29.110Z,13.09
2023-03-30T22:13:29.092Z,13.11
2023-03-30T22:14:29.074Z,13.09
2023-03-30T22:15:29.064Z,12.97
2023-03-30T22:16:29.096Z,13.00
2023-03-30T22:17:29.000Z,13.02
2023-03-30T22:18:28.985Z,12.99
2023-03-30T22:19:28.983Z,12.99
2023-03-30T22:20:28.938Z,13.02
2023-03-30T22:21:28.906Z,12.92
2023-03-30T22:22:28.885Z,13.02